createdAt,value
2022-10-29T00:00:41.473Z,4.30
2022-10-29T00:05:43.757Z,4.23
2022-10-29T00:10:46.036Z,3.53
2022-10-29T00:15:48.384Z,4.43
2022-10-29T00:20:59.302Z,4.30
2022-10-29T00:26:02.430Z,5.60
2022-10-29T00:31:05.679Z,4.43
2022-10-29T00:36:17.127Z,4.70
2022-10-29T00:41:22.124Z,4.23
2022-10-29T00:46:31.896Z,4.40
2022-10-29T00:51:35.184Z,4.60
2022-10-29T00:56:43.204Z,4.63
2022-10-29T01:01:47.532Z,4.20
2022-10-29T01:06:50.296Z,4.70
2022-10-29T01:12:09.423Z,4.53
2022-10-29T01:17:32.995Z,4.50
2022-10-29T01:22:47.073Z,5.00
2022-10-29T01:27:55.296Z,5.80
2022-10-29T01:33:04.003Z,5.47
2022-10-29T01:38:38.953Z,4.97
2022-10-29T01:43:47.351Z,5.33
2022-10-29T01:48:54.220Z,5.40
2022-10-29T01:53:59.112Z,5.87
2022-10-29T01:59:03.452Z,5.03
2022-10-29T02:04:30.294Z,5.80
2022-10-29T02:09:49.277Z,6.33
2022-10-29T02:15:04.028Z,5.23
2022-10-29T02:20:09.872Z,5.33
2022-10-29T02:25:12.439Z,6.33
2022-10-29T02:30:15.533Z,5.70
2022-10-29T02:35:18.002Z,6.10
2022-10-29T02:40:20.387Z,6.53
2022-10-29T02:45:22.859Z,6.70
2022-10-29T02:50:26.203Z,6.00
2022-10-29T02:55:28.762Z,6.13
2022-10-29T03:00:31.214Z,5.47
2022-10-29T03:05:33.722Z,6.33
2022-10-29T03:10:36.845Z,6.10
2022-10-29T03:15:39.263Z,6.07
2022-10-29T03:20:43.077Z,6.03
2022-10-29T03:25:52.935Z,5.70
2022-10-29T03:30:58.717Z,5.87
2022-10-29T03:36:03.670Z,5.83
2022-10-29T03:41:10.317Z,5.07
2022-10-29T03:46:12.822Z,5.53
2022-10-29T03:51:15.168Z,5.10
2022-10-29T03:56:17.495Z,4.90
2022-10-29T04:01:19.965Z,5.47
2022-10-29T04:06:22.861Z,5.73
2022-10-29T04:11:25.304Z,5.20
2022-10-29T04:16:27.609Z,5.13
2022-10-29T04:32:14.858Z,5.47
2022-10-29T04:37:17.213Z,5.23
2022-10-29T04:42:20.104Z,4.83
2022-10-29T04:47:23.017Z,4.53
2022-10-29T04:52:25.792Z,4.90
2022-10-29T04:57:28.285Z,5.07
2022-10-29T05:02:30.705Z,4.47
2022-10-29T05:07:33.147Z,4.43
2022-10-29T05:12:35.707Z,4.60
2022-10-29T05:17:38.812Z,4.30
2022-10-29T05:22:41.179Z,4.53
2022-10-29T05:27:44.093Z,5.03
2022-10-29T05:32:46.430Z,4.73
2022-10-29T05:37:57.277Z,3.97
2022-10-29T05:43:00.188Z,4.37
2022-10-29T05:48:14.371Z,4.43
2022-10-29T05:53:17.227Z,4.27
2022-10-29T05:58:19.847Z,4.67
2022-10-29T06:03:23.312Z,4.73
2022-10-29T06:08:26.096Z,4.53
2022-10-29T06:13:28.828Z,5.20
2022-10-29T06:18:34.208Z,4.40
2022-10-29T06:23:37.232Z,4.23
2022-10-29T06:28:40.204Z,4.90
2022-10-29T06:33:43.702Z,4.93
2022-10-29T06:38:46.637Z,4.80
2022-10-29T06:43:50.153Z,4.60
2022-10-29T06:48:52.665Z,4.70
2022-10-29T06:53:55.874Z,4.67
2022-10-29T06:58:59.359Z,4.37
2022-10-29T07:04:02.672Z,4.77
2022-10-29T07:09:05.825Z,3.70
2022-10-29T07:14:10.035Z,3.70
2022-10-29T07:19:12.838Z,4.37
2022-10-29T07:24:19.197Z,4.47
2022-10-29T07:29:22.610Z,4.20
2022-10-29T07:34:25.190Z,4.83
2022-10-29T07:39:28.061Z,5.23
2022-10-29T07:44:30.729Z,5.23
2022-10-29T07:49:33.684Z,5.77
2022-10-29T07:54:36.897Z,5.83
2022-10-29T07:59:39.936Z,5.07
2022-10-29T08:04:42.743Z,5.73
2022-10-29T08:09:45.392Z,5.33
2022-10-29T08:14:51.283Z,5.03
2022-10-29T08:19:54.336Z,5.40
2022-10-29T08:24:57.294Z,5.53
2022-10-29T08:30:04.315Z,5.37
2022-10-29T08:35:08.007Z,5.00
2022-10-29T08:40:36.989Z,4.30
2022-10-29T08:45:51.498Z,4.50
2022-10-29T08:51:07.143Z,4.10
2022-10-29T08:56:18.426Z,4.67
2022-10-29T09:01:23.088Z,3.93
2022-10-29T09:06:45.799Z,4.47
2022-10-29T09:12:01.989Z,4.13
2022-10-29T09:17:30.390Z,4.93
2022-10-29T09:22:51.685Z,4.57
2022-10-29T09:28:00.609Z,5.07
2022-10-29T09:33:17.195Z,4.40
2022-10-29T09:38:26.926Z,4.50
2022-10-29T09:43:39.128Z,4.27
2022-10-29T09:48:52.179Z,4.23
2022-10-29T09:53:55.640Z,4.47
2022-10-29T09:59:18.770Z,4.50
2022-10-29T10:04:40.885Z,3.93
2022-10-29T10:09:54.824Z,4.30
2022-10-29T10:15:15.795Z,4.33
2022-10-29T10:20:27.461Z,4.27
2022-10-29T10:25:33.464Z,4.27
2022-10-29T10:30:36.077Z,3.50
2022-10-29T10:35:39.343Z,3.90
2022-10-29T10:40:43.124Z,4.10
2022-10-29T10:45:56.488Z,4.40
2022-10-29T10:51:26.021Z,4.13
2022-10-29T10:56:29.643Z,3.07
2022-10-29T11:01:49.145Z,3.90
2022-10-29T11:06:56.161Z,4.53
2022-10-29T11:12:19.758Z,4.33
2022-10-29T11:17:27.169Z,3.60
2022-10-29T11:22:38.233Z,3.87
2022-10-29T11:28:07.045Z,3.23
2022-10-29T11:33:40.588Z,3.10
2022-10-29T11:39:03.542Z,2.90
2022-10-29T11:44:12.875Z,2.83
2022-10-29T11:49:29.878Z,6.27
2022-10-29T11:55:03.471Z,3.53
2022-10-29T12:00:17.103Z,3.43
2022-10-29T12:05:50.523Z,3.90
2022-10-29T12:11:43.002Z,3.97
2022-10-29T12:17:16.600Z,3.57
2022-10-29T12:22:27.977Z,3.80
2022-10-29T12:28:05.966Z,4.70
2022-10-29T12:33:19.234Z,4.97
2022-10-29T12:38:43.551Z,4.90
2022-10-29T12:43:53.089Z,4.53
2022-10-29T12:49:39.160Z,4.70
2022-10-29T12:54:47.274Z,5.00
2022-10-29T12:59:50.138Z,5.50
2022-10-29T13:05:09.525Z,4.60
2022-10-29T13:10:29.586Z,4.63
2022-10-29T13:15:34.340Z,4.13
2022-10-29T13:20:41.737Z,4.50
2022-10-29T13:25:48.513Z,5.03
2022-10-29T13:31:14.169Z,5.13
2022-10-29T13:36:16.735Z,4.80
2022-10-29T13:41:39.802Z,4.77
2022-10-29T13:46:56.094Z,4.63
2022-10-29T13:52:08.604Z,4.40
2022-10-29T13:57:30.062Z,4.53
2022-10-29T14:02:41.933Z,4.40
2022-10-29T14:07:53.235Z,5.07
2022-10-29T14:13:01.076Z,4.60
2022-10-29T14:18:26.756Z,4.90
2022-10-29T14:23:32.006Z,4.47
2022-10-29T14:28:34.457Z,4.70
2022-10-29T14:33:38.796Z,4.40
2022-10-29T14:38:49.909Z,5.60
2022-10-29T14:44:03.076Z,4.53
2022-10-29T14:49:22.445Z,4.13
2022-10-29T14:54:35.862Z,4.30
2022-10-29T14:59:38.911Z,4.70
2022-10-29T15:05:01.876Z,4.90
2022-10-29T15:10:09.010Z,4.70
2022-10-29T15:15:23.355Z,4.90
2022-10-29T15:20:29.002Z,4.53
2022-10-29T15:25:37.684Z,4.50
2022-10-29T15:30:40.240Z,4.93
2022-10-29T15:35:51.920Z,5.27
2022-10-29T15:41:12.245Z,4.80
2022-10-29T15:46:22.906Z,4.77
2022-10-29T15:51:30.500Z,4.73
2022-10-29T15:56:33.062Z,4.77
2022-10-29T16:01:35.629Z,4.17
2022-10-29T16:06:38.484Z,4.80
2022-10-29T16:11:41.165Z,4.73
2022-10-29T16:16:44.715Z,5.30
2022-10-29T16:21:47.238Z,4.43
2022-10-29T16:26:49.769Z,6.30
2022-10-29T16:31:52.111Z,5.27
2022-10-29T16:36:54.627Z,4.57
2022-10-29T16:41:57.073Z,4.30
2022-10-29T16:47:00.626Z,4.47
2022-10-29T16:52:05.782Z,4.53
2022-10-29T16:57:08.280Z,4.40
2022-10-29T17:02:11.961Z,4.73
2022-10-29T17:07:14.340Z,5.33
2022-10-29T17:12:16.815Z,6.00
2022-10-29T17:17:19.180Z,4.13
2022-10-29T17:22:21.537Z,5.23
2022-10-29T17:27:23.996Z,4.93
2022-10-29T17:32:32.425Z,5.73
2022-10-29T17:37:34.998Z,5.87
2022-10-29T17:42:39.074Z,5.20
2022-10-29T17:47:42.776Z,6.43
2022-10-29T17:52:45.981Z,5.37
2022-10-29T17:57:48.570Z,4.57
2022-10-29T18:02:51.461Z,5.00
2022-10-29T18:07:54.070Z,4.77
2022-10-29T18:12:56.560Z,4.83
2022-10-29T18:18:00.849Z,4.70
2022-10-29T18:23:03.714Z,4.50
2022-10-29T18:28:06.666Z,4.57
2022-10-29T18:38:21.997Z,4.87
2022-10-29T18:43:26.948Z,4.37
2022-10-29T18:53:34.417Z,5.20
2022-10-29T18:58:36.977Z,4.97
2022-10-29T19:03:40.466Z,4.70
2022-10-29T19:08:44.047Z,5.40
2022-10-29T19:13:53.569Z,5.70
2022-10-29T19:19:01.407Z,5.50
2022-10-29T19:24:05.627Z,5.23
2022-10-29T19:29:10.495Z,5.43
2022-10-29T19:34:13.585Z,5.83
2022-10-29T19:39:15.999Z,5.17
2022-10-29T19:44:18.598Z,5.23
2022-10-29T19:49:21.869Z,4.97
2022-10-29T19:54:24.582Z,4.87
2022-10-29T19:59:27.087Z,5.23
2022-10-29T20:04:31.093Z,5.50
2022-10-29T20:09:33.754Z,5.67
2022-10-29T20:14:37.732Z,5.67
2022-10-29T20:19:40.397Z,5.70
2022-10-29T20:24:42.944Z,6.00
2022-10-29T20:29:45.444Z,5.93
2022-10-29T20:34:47.870Z,5.23
2022-10-29T20:39:51.418Z,5.83
2022-10-29T20:44:53.869Z,5.40
2022-10-29T20:49:56.200Z,5.77
2022-10-29T20:54:58.725Z,5.77
2022-10-29T21:00:01.679Z,5.03
2022-10-29T21:05:04.678Z,5.20
2022-10-29T21:10:08.486Z,5.10
2022-10-29T21:15:10.988Z,5.27
2022-10-29T21:20:13.434Z,5.30
2022-10-29T21:25:15.904Z,4.80
2022-10-29T21:30:18.342Z,5.13
2022-10-29T21:35:21.081Z,5.37
2022-10-29T21:40:23.635Z,4.83
2022-10-29T21:45:26.022Z,5.30
2022-10-29T21:50:28.407Z,4.90
2022-10-29T21:55:31.821Z,5.13
2022-10-29T22:00:34.387Z,4.77
2022-10-29T22:05:36.751Z,4.83
2022-10-29T22:10:39.093Z,4.90
2022-10-29T22:15:44.782Z,4.50
2022-10-29T22:20:47.562Z,4.87
2022-10-29T22:25:51.278Z,4.83
2022-10-29T22:31:01.475Z,4.53
2022-10-29T22:36:08.964Z,5.00
2022-10-29T22:41:16.894Z,5.20
2022-10-29T22:46:20.646Z,4.40
2022-10-29T22:51:26.812Z,5.07
2022-10-29T22:56:32.403Z,6.50
2022-10-29T23:01:40.305Z,5.70
2022-10-29T23:06:47.798Z,5.13
2022-10-29T23:11:50.648Z,5.20
2022-10-29T23:16:53.446Z,5.13
2022-10-29T23:21:55.902Z,5.53
2022-10-29T23:26:58.313Z,4.77
2022-10-29T23:32:00.673Z,5.13
2022-10-29T23:37:05.652Z,4.93
2022-10-29T23:42:11.055Z,5.33
2022-10-29T23:47:13.387Z,4.83
2022-10-29T23:52:15.930Z,4.80
2022-10-29T23:57:18.257Z,4.77
